Independence, California
Current Conditions -  °F | °C
As of 4:56 PM on Saturday 25 Oct 2014 (Local Time) from KBIH Reporting Station
Clear Clear  
Wind Chill: 78°   Ceiling: Unl
Heat Index: 78°   Visibility: 10mi
Dew Point:   Wind: 8mph
Humidity: 6%   Direction: 220°SW
Pressure: 29.93"   Gusts: NA
Location:  36.8°N, 118.2°W
Report Text: KBIH 252356Z AUTO 22007KT 10SM CLR 26/M14 A2993 RMK AO2 SLP089 T02561144 10278 20228 56003
Loading
Personal Weather Stations






























Interactive Weather Map
Tropical Storm Tracking
New forecast layout! Learn more

10-Day Weather Forecast

Advertisements
Track Severe Weather on mobile